createdAt,value
2023-11-25T00:00:56.150Z,72.88
2023-11-25T00:03:39.002Z,73.17
2023-11-25T00:06:06.380Z,73.63
2023-11-25T00:08:32.914Z,73.31
2023-11-25T00:11:00.143Z,72.90
2023-11-25T00:13:26.602Z,73.72
2023-11-25T00:15:55.160Z,73.79
2023-11-25T00:18:21.772Z,74.03
2023-11-25T00:20:48.733Z,73.95
2023-11-25T00:23:15.151Z,73.58
2023-11-25T00:25:41.549Z,73.98
2023-11-25T00:28:10.551Z,73.60
2023-11-25T00:30:37.670Z,73.47
2023-11-25T00:33:04.674Z,73.14
2023-11-25T00:35:31.593Z,73.64
2023-11-25T00:37:58.135Z,73.76
2023-11-25T00:40:26.256Z,73.72
2023-11-25T00:42:52.850Z,73.52
2023-11-25T00:45:19.572Z,73.18
2023-11-25T00:47:46.141Z,73.26
2023-11-25T00:50:16.513Z,73.71
2023-11-25T00:52:43.576Z,73.49
2023-11-25T00:55:11.039Z,73.53
2023-11-25T00:57:38.151Z,73.53
2023-11-25T01:00:06.449Z,73.79
2023-11-25T01:02:34.013Z,73.71
2023-11-25T01:05:00.507Z,73.46
2023-11-25T01:07:28.798Z,73.41
2023-11-25T01:09:55.782Z,73.60
2023-11-25T01:12:22.479Z,73.42
2023-11-25T01:14:49.057Z,73.11
2023-11-25T01:17:15.641Z,73.26
2023-11-25T01:19:42.965Z,73.94
2023-11-25T01:22:09.904Z,73.85
2023-11-25T01:24:36.431Z,73.95
2023-11-25T01:27:03.415Z,74.08
2023-11-25T01:29:29.991Z,73.65
2023-11-25T01:31:56.280Z,74.28
2023-11-25T01:34:22.922Z,74.07
2023-11-25T01:36:49.427Z,74.21
2023-11-25T01:39:15.890Z,74.11
2023-11-25T01:41:44.020Z,73.87
2023-11-25T01:44:12.861Z,74.00
2023-11-25T01:46:43.383Z,74.25
2023-11-25T01:49:14.125Z,73.97
2023-11-25T01:51:44.623Z,74.16
2023-11-25T01:54:15.662Z,74.02
2023-11-25T01:56:45.035Z,74.31
2023-11-25T01:59:15.887Z,74.95
2023-11-25T02:01:44.500Z,75.49
2023-11-25T02:04:10.965Z,75.60
2023-11-25T02:06:37.412Z,75.62
2023-11-25T02:09:04.267Z,75.42
2023-11-25T02:11:30.715Z,75.07
2023-11-25T02:13:57.336Z,75.05
2023-11-25T02:16:24.098Z,75.46
2023-11-25T02:18:52.056Z,74.97
2023-11-25T02:21:20.318Z,74.95
2023-11-25T02:23:47.712Z,75.07
2023-11-25T02:26:14.500Z,74.90
2023-11-25T02:28:40.804Z,74.86
2023-11-25T02:31:08.251Z,74.91
2023-11-25T02:33:35.068Z,74.83
2023-11-25T02:36:01.708Z,74.74
2023-11-25T02:38:28.759Z,74.81
2023-11-25T02:40:55.665Z,74.73
2023-11-25T02:43:25.024Z,74.83
2023-11-25T02:45:52.949Z,75.03
2023-11-25T02:48:20.160Z,75.29
2023-11-25T02:50:48.479Z,75.23
2023-11-25T02:53:15.161Z,75.50
2023-11-25T02:55:41.675Z,75.72
2023-11-25T02:58:08.210Z,75.45
2023-11-25T03:00:40.149Z,75.72
2023-11-25T03:03:13.227Z,76.06
2023-11-25T03:05:46.485Z,76.07
2023-11-25T03:08:17.787Z,76.15
2023-11-25T03:10:46.883Z,76.95
2023-11-25T03:13:19.217Z,76.94
2023-11-25T03:15:45.983Z,77.31
2023-11-25T03:18:13.002Z,77.56
2023-11-25T03:20:40.892Z,78.08
2023-11-25T03:23:07.808Z,78.21
2023-11-25T03:25:35.558Z,78.42
2023-11-25T03:28:08.326Z,78.05
2023-11-25T03:30:35.925Z,78.58
2023-11-25T03:33:02.622Z,78.69
2023-11-25T03:35:29.416Z,78.27
2023-11-25T03:37:55.921Z,78.09
2023-11-25T03:40:22.755Z,78.16
2023-11-25T03:42:49.560Z,78.13
2023-11-25T03:45:16.287Z,77.86
2023-11-25T03:47:46.767Z,77.95
2023-11-25T03:50:13.694Z,77.99
2023-11-25T03:52:41.460Z,78.68
2023-11-25T03:55:11.432Z,79.37
2023-11-25T03:57:44.103Z,79.21
2023-11-25T04:00:18.049Z,79.72
2023-11-25T04:02:46.553Z,79.56
2023-11-25T04:05:13.836Z,79.78
2023-11-25T04:07:40.891Z,79.51
2023-11-25T04:10:16.367Z,79.78
2023-11-25T04:12:47.762Z,80.23
2023-11-25T04:15:21.930Z,80.26
2023-11-25T04:17:49.052Z,80.03
2023-11-25T04:20:18.428Z,79.40
2023-11-25T04:22:46.350Z,79.27
2023-11-25T04:25:14.893Z,79.30
2023-11-25T04:27:42.765Z,79.65
2023-11-25T04:30:11.440Z,79.49
2023-11-25T04:32:40.469Z,79.01
2023-11-25T04:35:08.284Z,78.38
2023-11-25T04:37:35.041Z,78.14
2023-11-25T04:40:01.700Z,78.16
2023-11-25T04:42:28.216Z,78.45
2023-11-25T04:44:56.467Z,78.45
2023-11-25T04:47:23.140Z,78.16
2023-11-25T04:49:49.904Z,78.28
2023-11-25T04:52:16.656Z,78.17
2023-11-25T04:54:44.525Z,78.42
2023-11-25T04:57:11.810Z,78.97
2023-11-25T04:59:38.211Z,79.59
2023-11-25T05:02:07.509Z,80.47
2023-11-25T05:04:34.187Z,80.73
2023-11-25T05:07:00.532Z,80.61
2023-11-25T05:09:27.340Z,79.87
2023-11-25T05:11:54.126Z,79.44
2023-11-25T05:14:21.222Z,79.57
2023-11-25T05:16:48.056Z,78.95
2023-11-25T05:19:14.768Z,78.45
2023-11-25T05:21:41.373Z,77.25
2023-11-25T05:24:08.150Z,76.70
2023-11-25T05:26:34.677Z,75.70
2023-11-25T05:29:01.069Z,75.52
2023-11-25T05:31:28.599Z,75.19
2023-11-25T05:33:54.942Z,74.72
2023-11-25T05:36:21.461Z,73.37
2023-11-25T05:38:50.501Z,72.39
2023-11-25T05:41:17.744Z,72.12
2023-11-25T05:43:47.337Z,71.48
2023-11-25T05:46:32.451Z,71.88
2023-11-25T05:48:59.563Z,71.40
2023-11-25T05:51:39.877Z,70.79
2023-11-25T05:54:06.653Z,70.73
2023-11-25T05:56:33.181Z,70.63
2023-11-25T05:58:59.909Z,70.87
2023-11-25T06:01:27.280Z,71.51
2023-11-25T06:03:53.872Z,71.60
2023-11-25T06:06:21.842Z,72.01
2023-11-25T06:08:49.332Z,72.59
2023-11-25T06:11:22.843Z,73.14
2023-11-25T06:13:50.436Z,73.80
2023-11-25T06:16:18.039Z,73.98
2023-11-25T06:18:45.559Z,73.81
2023-11-25T06:21:12.557Z,73.75
2023-11-25T06:23:39.873Z,73.82
2023-11-25T06:26:11.883Z,73.85
2023-11-25T06:28:43.047Z,73.74
2023-11-25T06:31:13.353Z,73.91
2023-11-25T06:33:41.645Z,74.08
2023-11-25T06:36:12.044Z,74.27
2023-11-25T06:38:39.453Z,74.60
2023-11-25T06:41:07.964Z,75.19
2023-11-25T06:43:34.640Z,75.44
2023-11-25T06:46:01.115Z,75.75
2023-11-25T06:48:29.591Z,76.09
2023-11-25T06:50:58.372Z,76.26
2023-11-25T06:53:24.790Z,76.48
2023-11-25T06:55:51.397Z,76.75
2023-11-25T06:58:22.704Z,76.82
2023-11-25T07:00:49.788Z,76.44
2023-11-25T07:03:17.113Z,76.16
2023-11-25T07:05:43.965Z,76.38
2023-11-25T07:08:10.511Z,76.21
2023-11-25T07:10:37.538Z,76.18
2023-11-25T07:13:05.840Z,76.07
2023-11-25T07:15:33.002Z,76.15
2023-11-25T07:18:00.309Z,76.25
2023-11-25T07:20:27.797Z,76.58
2023-11-25T07:22:54.110Z,76.51
2023-11-25T07:25:20.599Z,76.27
2023-11-25T07:27:47.804Z,75.99
2023-11-25T07:30:16.380Z,75.56
2023-11-25T07:32:44.258Z,75.45
2023-11-25T07:35:10.980Z,75.17
2023-11-25T07:37:39.373Z,75.12
2023-11-25T07:40:14.974Z,75.33
2023-11-25T07:42:48.665Z,75.35
2023-11-25T07:45:17.204Z,75.01
2023-11-25T07:47:44.602Z,74.47
2023-11-25T07:50:12.194Z,74.19
2023-11-25T07:52:38.783Z,74.18
2023-11-25T07:55:05.805Z,74.43
2023-11-25T07:57:33.752Z,74.90
2023-11-25T08:00:00.619Z,75.26
2023-11-25T08:02:28.201Z,75.59
2023-11-25T08:04:54.618Z,75.06
2023-11-25T08:07:21.252Z,75.24
2023-11-25T08:09:47.651Z,75.16
2023-11-25T08:12:14.719Z,75.12
2023-11-25T08:14:41.495Z,74.83
2023-11-25T08:17:07.889Z,74.77
2023-11-25T08:19:34.278Z,74.27
2023-11-25T08:22:00.629Z,74.22
2023-11-25T08:24:27.569Z,73.71
2023-11-25T08:26:55.086Z,73.62
2023-11-25T08:29:21.539Z,73.01
2023-11-25T08:31:48.064Z,73.34
2023-11-25T08:34:15.278Z,73.05
2023-11-25T08:36:54.579Z,72.75
2023-11-25T08:39:23.308Z,73.02
2023-11-25T08:41:50.768Z,72.99
2023-11-25T08:44:19.659Z,73.01
2023-11-25T08:46:46.552Z,73.10
2023-11-25T08:49:14.335Z,73.17
2023-11-25T08:51:46.443Z,73.41
2023-11-25T08:54:18.379Z,73.54
2023-11-25T08:56:46.178Z,73.61
2023-11-25T08:59:18.097Z,73.76
2023-11-25T09:01:45.601Z,74.14
2023-11-25T09:04:17.112Z,73.94
2023-11-25T09:06:46.545Z,74.04
2023-11-25T09:09:16.313Z,73.91
2023-11-25T09:11:43.714Z,74.27
2023-11-25T09:14:10.217Z,74.21
2023-11-25T09:16:37.812Z,74.41
2023-11-25T09:19:04.705Z,74.33
2023-11-25T09:21:31.079Z,73.99
2023-11-25T09:23:58.611Z,74.48
2023-11-25T09:26:25.411Z,73.90
2023-11-25T09:28:53.519Z,74.26
2023-11-25T09:31:20.017Z,74.04
2023-11-25T09:33:47.546Z,74.25
2023-11-25T09:36:14.647Z,74.24
2023-11-25T09:38:41.118Z,74.45
2023-11-25T09:41:08.646Z,73.83
2023-11-25T09:43:36.909Z,73.37
2023-11-25T09:46:04.493Z,72.94
2023-11-25T09:48:31.576Z,72.90
2023-11-25T09:51:00.098Z,74.29
2023-11-25T09:53:29.478Z,74.41
2023-11-25T09:56:06.827Z,74.91
2023-11-25T09:58:37.829Z,74.05
2023-11-25T10:01:06.410Z,73.62
2023-11-25T10:03:36.069Z,73.60
2023-11-25T10:06:02.871Z,73.43
2023-11-25T10:08:30.325Z,73.25
2023-11-25T10:11:06.780Z,73.72
2023-11-25T10:13:34.858Z,73.77
2023-11-25T10:16:06.317Z,73.47
2023-11-25T10:18:36.035Z,74.01
2023-11-25T10:21:06.059Z,74.32
2023-11-25T10:23:33.689Z,74.97
2023-11-25T10:26:03.765Z,73.63
2023-11-25T10:28:36.493Z,72.88
2023-11-25T10:31:24.604Z,72.81
2023-11-25T10:33:56.811Z,72.37
2023-11-25T10:36:23.802Z,71.53
2023-11-25T10:38:54.140Z,70.81
2023-11-25T10:41:20.977Z,70.43
2023-11-25T10:43:47.445Z,69.83
2023-11-25T10:46:14.248Z,70.04
2023-11-25T10:48:40.596Z,69.95
2023-11-25T10:51:08.799Z,69.55
2023-11-25T10:53:39.728Z,68.40
2023-11-25T10:56:07.526Z,68.74
2023-11-25T10:58:35.609Z,67.75
2023-11-25T11:01:02.906Z,67.37
2023-11-25T11:04:03.608Z,67.14
2023-11-25T11:06:39.558Z,66.28
2023-11-25T11:09:09.894Z,66.03
2023-11-25T11:11:48.077Z,66.50
2023-11-25T11:14:16.355Z,66.43
2023-11-25T11:17:10.851Z,66.21
2023-11-25T11:19:41.286Z,65.75
2023-11-25T11:22:14.478Z,64.65
2023-11-25T11:24:59.152Z,65.50
2023-11-25T11:27:29.278Z,66.40
2023-11-25T11:30:02.448Z,65.83
2023-11-25T11:32:34.922Z,65.65
2023-11-25T11:35:02.838Z,65.32
2023-11-25T11:37:40.587Z,65.01
2023-11-25T11:40:08.556Z,64.62
2023-11-25T11:42:36.765Z,64.77
2023-11-25T11:45:22.285Z,64.63
2023-11-25T11:48:15.051Z,65.24
2023-11-25T11:50:43.916Z,64.91
2023-11-25T11:53:13.513Z,64.61
2023-11-25T11:55:41.406Z,64.93
2023-11-25T11:58:12.884Z,64.53
2023-11-25T12:01:03.905Z,64.22
2023-11-25T12:03:32.513Z,64.16
2023-11-25T12:06:00.243Z,64.71
2023-11-25T12:08:28.121Z,64.40
2023-11-25T12:10:55.319Z,64.04
2023-11-25T12:13:33.400Z,64.50
2023-11-25T12:16:01.219Z,63.93
2023-11-25T12:18:32.586Z,64.16
2023-11-25T12:21:05.846Z,64.03
2023-11-25T12:23:44.645Z,63.53
2023-11-25T12:26:23.290Z,63.97
2023-11-25T12:28:49.692Z,63.94
2023-11-25T12:31:16.513Z,63.53
2023-11-25T12:33:43.159Z,63.75
2023-11-25T12:36:09.707Z,63.38
2023-11-25T12:38:37.118Z,63.31
2023-11-25T12:41:11.314Z,63.37
2023-11-25T12:43:38.466Z,63.37
2023-11-25T12:46:10.804Z,63.00
2023-11-25T12:48:37.849Z,62.13
2023-11-25T12:51:07.332Z,62.75
2023-11-25T12:53:35.261Z,62.91
2023-11-25T12:56:02.850Z,62.33
2023-11-25T12:58:29.505Z,62.80
2023-11-25T13:00:58.205Z,62.70
2023-11-25T13:03:29.141Z,63.57
2023-11-25T13:06:10.931Z,63.75
2023-11-25T13:08:45.186Z,63.66
2023-11-25T13:11:12.795Z,63.77
2023-11-25T13:13:40.250Z,63.56
2023-11-25T13:16:10.761Z,63.95
2023-11-25T13:18:37.194Z,64.22
2023-11-25T13:21:07.260Z,64.10
2023-11-25T13:23:34.331Z,64.17
2023-11-25T13:26:01.028Z,64.10
2023-11-25T13:28:27.528Z,64.49
2023-11-25T13:30:53.947Z,65.03
2023-11-25T13:33:20.920Z,64.98
2023-11-25T13:35:47.325Z,64.47
2023-11-25T13:38:16.063Z,64.64
2023-11-25T13:40:43.515Z,65.03
2023-11-25T13:43:17.367Z,65.36
2023-11-25T13:45:45.724Z,65.20
2023-11-25T13:48:16.055Z,65.16
2023-11-25T13:50:43.287Z,65.82
2023-11-25T13:53:09.768Z,65.50
2023-11-25T13:55:56.295Z,65.51
2023-11-25T13:58:22.647Z,65.82
2023-11-25T14:00:49.132Z,65.53
2023-11-25T14:03:16.503Z,66.10
2023-11-25T14:05:43.475Z,65.91
2023-11-25T14:08:15.105Z,66.76
2023-11-25T14:10:43.426Z,66.71
2023-11-25T14:13:11.496Z,67.25
2023-11-25T14:15:38.149Z,67.36
2023-11-25T14:18:08.078Z,67.55
2023-11-25T14:20:35.363Z,67.81
2023-11-25T14:23:05.026Z,67.82
2023-11-25T14:25:31.743Z,67.91
2023-11-25T14:27:58.482Z,67.90
2023-11-25T14:30:29.002Z,68.35
2023-11-25T14:32:55.698Z,68.33
2023-11-25T14:35:23.846Z,68.68
2023-11-25T14:37:53.335Z,69.41
2023-11-25T14:40:21.019Z,69.81
2023-11-25T14:42:47.430Z,70.62
2023-11-25T14:45:13.947Z,71.29
2023-11-25T14:47:41.920Z,71.88
2023-11-25T14:50:12.021Z,72.36
2023-11-25T14:52:38.506Z,72.91
2023-11-25T14:55:08.514Z,73.32
2023-11-25T14:57:36.699Z,74.03
2023-11-25T15:00:05.698Z,74.21
2023-11-25T15:02:32.758Z,74.29
2023-11-25T15:04:59.601Z,74.44
2023-11-25T15:07:26.478Z,74.77
2023-11-25T15:09:53.115Z,74.83
2023-11-25T15:12:20.249Z,75.44
2023-11-25T15:14:46.928Z,75.86
2023-11-25T15:17:13.629Z,75.95
2023-11-25T15:19:44.776Z,76.17
2023-11-25T15:22:11.701Z,76.30
2023-11-25T15:24:38.309Z,76.19
2023-11-25T15:27:05.736Z,75.98
2023-11-25T15:29:32.678Z,76.31
2023-11-25T15:31:59.605Z,76.35
2023-11-25T15:34:25.986Z,76.57
2023-11-25T15:36:52.712Z,76.76
2023-11-25T15:39:19.584Z,77.07
2023-11-25T15:41:46.393Z,77.03
2023-11-25T15:44:13.685Z,76.69
2023-11-25T15:46:44.810Z,76.68
2023-11-25T15:49:12.645Z,76.88
2023-11-25T15:51:40.284Z,76.97
2023-11-25T15:54:07.786Z,76.75
2023-11-25T15:56:34.122Z,76.92
2023-11-25T15:59:01.602Z,76.98
2023-11-25T16:01:29.343Z,77.28
2023-11-25T16:03:56.541Z,77.23
2023-11-25T16:06:25.084Z,77.34
2023-11-25T16:08:51.999Z,77.38
2023-11-25T16:11:18.895Z,77.25
2023-11-25T16:13:45.368Z,77.44
2023-11-25T16:16:11.864Z,77.56
2023-11-25T16:18:40.269Z,78.02
2023-11-25T16:21:06.976Z,77.66
2023-11-25T16:23:36.094Z,77.86
2023-11-25T16:26:05.398Z,78.10
2023-11-25T16:28:31.943Z,77.87
2023-11-25T16:30:59.420Z,78.04
2023-11-25T16:33:26.352Z,78.10
2023-11-25T16:35:52.772Z,77.96
2023-11-25T16:38:21.470Z,77.78
2023-11-25T16:40:48.153Z,78.46
2023-11-25T16:43:14.528Z,78.14
2023-11-25T16:45:41.042Z,78.23
2023-11-25T16:48:10.214Z,78.33
2023-11-25T16:50:38.323Z,78.62
2023-11-25T16:53:05.418Z,78.56
2023-11-25T16:55:32.504Z,78.44
2023-11-25T16:57:59.597Z,78.76
2023-11-25T17:00:26.823Z,78.39
2023-11-25T17:02:53.358Z,78.60
2023-11-25T17:05:21.076Z,78.23
2023-11-25T17:07:48.072Z,78.28
2023-11-25T17:10:16.193Z,78.28
2023-11-25T17:12:42.632Z,78.29
2023-11-25T17:15:10.029Z,78.53
2023-11-25T17:17:38.951Z,78.73
2023-11-25T17:20:07.670Z,79.07
2023-11-25T17:22:35.203Z,79.02
2023-11-25T17:25:01.497Z,79.02
2023-11-25T17:27:28.229Z,79.20
2023-11-25T17:29:57.031Z,79.07
2023-11-25T17:32:23.601Z,79.17
2023-11-25T17:34:50.131Z,79.14
2023-11-25T17:37:18.580Z,79.15
2023-11-25T17:39:45.540Z,79.08
2023-11-25T17:42:12.150Z,79.35
2023-11-25T17:44:38.911Z,79.07
2023-11-25T17:47:07.181Z,79.35
2023-11-25T17:49:33.976Z,79.04
2023-11-25T17:52:00.530Z,79.04
2023-11-25T17:54:27.064Z,79.08
2023-11-25T17:56:58.618Z,79.22
2023-11-25T17:59:25.019Z,79.28
2023-11-25T18:01:51.835Z,79.18
2023-11-25T18:04:18.419Z,79.26
2023-11-25T18:06:45.975Z,79.16
2023-11-25T18:09:17.088Z,79.05
2023-11-25T18:11:43.871Z,79.02
2023-11-25T18:14:13.537Z,79.19
2023-11-25T18:16:41.537Z,79.14
2023-11-25T18:19:12.031Z,79.03
2023-11-25T18:21:38.784Z,79.01
2023-11-25T18:24:05.968Z,78.93
2023-11-25T18:26:32.577Z,79.12
2023-11-25T18:28:59.192Z,78.98
2023-11-25T18:31:25.545Z,78.99
2023-11-25T18:33:52.047Z,79.11
2023-11-25T18:36:18.454Z,78.91
2023-11-25T18:38:44.848Z,78.75
2023-11-25T18:41:13.135Z,79.08
2023-11-25T18:43:39.984Z,79.15
2023-11-25T18:46:06.698Z,79.10
2023-11-25T18:48:33.703Z,78.79
2023-11-25T18:51:09.444Z,78.94
2023-11-25T18:53:36.379Z,78.87
2023-11-25T18:56:03.257Z,79.24
2023-11-25T18:58:32.168Z,79.17
2023-11-25T19:00:59.662Z,79.19
2023-11-25T19:03:26.555Z,79.16
2023-11-25T19:05:53.014Z,78.94
2023-11-25T19:08:19.670Z,79.33
2023-11-25T19:10:47.476Z,79.25
2023-11-25T19:13:14.441Z,79.10
2023-11-25T19:15:40.978Z,79.10
2023-11-25T19:18:10.212Z,78.89
2023-11-25T19:20:38.758Z,79.06
2023-11-25T19:23:05.805Z,78.93
2023-11-25T19:25:35.220Z,79.08
2023-11-25T19:28:02.227Z,78.96
2023-11-25T19:30:29.587Z,78.97
2023-11-25T19:32:56.061Z,79.22
2023-11-25T19:35:22.775Z,79.00
2023-11-25T19:37:49.089Z,78.96
2023-11-25T19:40:15.829Z,79.20
2023-11-25T19:42:43.826Z,79.05
2023-11-25T19:45:10.403Z,79.14
2023-11-25T19:47:38.579Z,79.11
2023-11-25T19:50:09.993Z,79.59
2023-11-25T19:52:39.296Z,79.83
2023-11-25T19:55:07.316Z,79.78
2023-11-25T19:57:34.529Z,79.98
2023-11-25T20:00:01.077Z,80.11
2023-11-25T20:02:27.850Z,79.66
2023-11-25T20:04:54.969Z,79.60
2023-11-25T20:07:22.151Z,79.75
2023-11-25T20:09:48.599Z,80.03
2023-11-25T20:12:15.250Z,79.55
2023-11-25T20:14:41.796Z,79.58
2023-11-25T20:17:08.390Z,79.60
2023-11-25T20:19:34.788Z,79.63
2023-11-25T20:22:06.371Z,79.85
2023-11-25T20:24:33.496Z,79.87
2023-11-25T20:27:00.211Z,79.90
2023-11-25T20:29:26.657Z,80.03
2023-11-25T20:31:55.820Z,80.03
2023-11-25T20:34:24.442Z,79.98
2023-11-25T20:36:52.789Z,80.22
2023-11-25T20:39:19.773Z,80.50
2023-11-25T20:41:46.465Z,80.34
2023-11-25T20:44:13.373Z,80.67
2023-11-25T20:46:39.888Z,80.62
2023-11-25T20:49:07.897Z,80.63
2023-11-25T20:51:35.442Z,80.78
2023-11-25T20:54:02.350Z,80.64
2023-11-25T20:56:28.679Z,80.66
2023-11-25T20:58:57.046Z,80.35
2023-11-25T21:01:23.486Z,80.29
2023-11-25T21:03:50.106Z,80.51
2023-11-25T21:06:17.066Z,80.42
2023-11-25T21:08:44.372Z,80.19
2023-11-25T21:11:11.048Z,80.32
2023-11-25T21:13:37.409Z,80.24
2023-11-25T21:16:05.132Z,79.89
2023-11-25T21:18:36.688Z,80.58
2023-11-25T21:21:04.365Z,80.32
2023-11-25T21:23:30.883Z,80.36
2023-11-25T21:25:57.321Z,80.39
2023-11-25T21:28:24.685Z,80.27
2023-11-25T21:30:51.344Z,80.43
2023-11-25T21:33:18.059Z,80.17
2023-11-25T21:35:47.033Z,80.19
2023-11-25T21:38:13.373Z,80.31
2023-11-25T21:40:41.052Z,80.16
2023-11-25T21:43:07.469Z,80.26
2023-11-25T21:45:34.544Z,80.28
2023-11-25T21:48:00.942Z,80.20
2023-11-25T21:50:28.004Z,80.39
2023-11-25T21:52:54.710Z,80.20
2023-11-25T21:55:21.711Z,80.24
2023-11-25T21:57:48.344Z,79.91
2023-11-25T22:00:16.346Z,80.12
2023-11-25T22:02:43.587Z,79.98
2023-11-25T22:05:11.423Z,80.06
2023-11-25T22:07:38.064Z,80.05
2023-11-25T22:10:07.417Z,80.13
2023-11-25T22:12:34.460Z,80.24
2023-11-25T22:15:00.830Z,80.45
2023-11-25T22:17:27.886Z,80.35
2023-11-25T22:19:54.447Z,80.18
2023-11-25T22:22:20.843Z,80.14
2023-11-25T22:24:55.402Z,79.89
2023-11-25T22:27:23.346Z,80.34
2023-11-25T22:29:50.819Z,80.47
2023-11-25T22:32:18.205Z,80.65
2023-11-25T22:34:46.166Z,80.22
2023-11-25T22:37:14.742Z,80.56
2023-11-25T22:39:41.677Z,80.39
2023-11-25T22:42:09.410Z,80.40
2023-11-25T22:44:35.761Z,79.94
2023-11-25T22:47:02.808Z,79.98
2023-11-25T22:49:29.188Z,80.11
2023-11-25T22:51:55.529Z,80.13
2023-11-25T22:54:21.914Z,80.43
2023-11-25T22:56:48.885Z,80.35
2023-11-25T22:59:15.620Z,80.51
2023-11-25T23:01:42.070Z,80.41
2023-11-25T23:04:09.504Z,80.24
2023-11-25T23:06:38.135Z,80.17
2023-11-25T23:09:05.317Z,80.16
2023-11-25T23:11:32.285Z,80.19
2023-11-25T23:13:59.510Z,80.02
2023-11-25T23:16:26.422Z,80.13
2023-11-25T23:18:52.923Z,79.76
2023-11-25T23:21:19.619Z,79.61
2023-11-25T23:23:48.699Z,79.73
2023-11-25T23:26:16.205Z,79.88
2023-11-25T23:28:43.763Z,79.83
2023-11-25T23:31:10.902Z,79.74
2023-11-25T23:33:37.920Z,79.82
2023-11-25T23:36:05.262Z,79.72
2023-11-25T23:38:32.181Z,79.68
2023-11-25T23:40:58.673Z,79.62
2023-11-25T23:43:24.994Z,79.98
2023-11-25T23:45:51.510Z,79.85
2023-11-25T23:48:18.618Z,79.90
2023-11-25T23:50:44.921Z,79.97
2023-11-25T23:53:12.627Z,79.97
2023-11-25T23:55:40.108Z,80.10
2023-11-25T23:58:06.781Z,80.15
